Map

Track Data

SID SEASON NUMBER BASIN SUBBASIN NAME ISO_TIME NATURE LAT LON WMO_WIND WMO_PRES WMO_AGENCY TRACK_TYPE DIST2LAND LANDFALL IFLAG USA_AGENCY USA_ATCF_ID USA_LAT USA_LON USA_RECORD USA_STATUS USA_WIND USA_PRES USA_SSHS USA_R34_NE USA_R34_SE USA_R34_SW USA_R34_NW USA_R50_NE USA_R50_SE USA_R50_SW USA_R50_NW USA_R64_NE USA_R64_SE USA_R64_SW USA_R64_NW USA_POCI USA_ROCI USA_RMW USA_EYE TOKYO_LAT TOKYO_LON TOKYO_GRADE TOKYO_WIND TOKYO_PRES TOKYO_R50_DIR TOKYO_R50_LONG TOKYO_R50_SHORT TOKYO_R30_DIR TOKYO_R30_LONG TOKYO_R30_SHORT TOKYO_LAND CMA_LAT CMA_LON CMA_CAT CMA_WIND CMA_PRES HKO_LAT HKO_LON HKO_CAT HKO_WIND HKO_PRES NEWDELHI_LAT NEWDELHI_LON NEWDELHI_GRADE NEWDELHI_WIND NEWDELHI_PRES NEWDELHI_CI NEWDELHI_DP NEWDELHI_POCI REUNION_LAT REUNION_LON REUNION_TYPE REUNION_WIND REUNION_PRES REUNION_TNUM REUNION_CI REUNION_RMW REUNION_R34_NE REUNION_R34_SE REUNION_R34_SW REUNION_R34_NW REUNION_R50_NE REUNION_R50_SE REUNION_R50_SW REUNION_R50_NW REUNION_R64_NE REUNION_R64_SE REUNION_R64_SW REUNION_R64_NW BOM_LAT BOM_LON BOM_TYPE BOM_WIND BOM_PRES BOM_TNUM BOM_CI BOM_RMW BOM_R34_NE BOM_R34_SE BOM_R34_SW BOM_R34_NW BOM_R50_NE BOM_R50_SE BOM_R50_SW BOM_R50_NW BOM_R64_NE BOM_R64_SE BOM_R64_SW BOM_R64_NW BOM_ROCI BOM_POCI BOM_EYE BOM_POS_METHOD BOM_PRES_METHOD NADI_LAT NADI_LON NADI_CAT NADI_WIND NADI_PRES WELLINGTON_LAT WELLINGTON_LON WELLINGTON_WIND WELLINGTON_PRES DS824_LAT DS824_LON DS824_STAGE DS824_WIND DS824_PRES TD9636_LAT TD9636_LON TD9636_STAGE TD9636_WIND TD9636_PRES TD9635_LAT TD9635_LON TD9635_WIND TD9635_PRES TD9635_ROCI NEUMANN_LAT NEUMANN_LON NEUMANN_CLASS NEUMANN_WIND NEUMANN_PRES MLC_LAT MLC_LON MLC_CLASS MLC_WIND MLC_PRES USA_GUST BOM_GUST BOM_GUST_PER REUNION_GUST REUNION_GUST_PER USA_SEAHGT USA_SEARAD_NE USA_SEARAD_SE USA_SEARAD_SW USA_SEARAD_NW STORM_SPEED STORM_DIR
1955274N19254 1955 79 EP MM NOT_NAMED 1955-10-01 00:00:00 TS 19.4000 -105.600 45 hurdat_epa main 45 45 O________OO___ hurdat_epa EP051955 19.4000 -105.600 TS 45 0 19.4000 -105.600 TC 45 19.4000 -105.600 2 7 251
1955274N19254 1955 79 EP MM NOT_NAMED 1955-10-01 03:00:00 TS 19.2853 -105.958 main 85 85 P________PP___ EP051955 19.2626 -105.948 TS 45 0 19.2626 -105.948 TC 45 19.3760 -106.000 2 7 256
1955274N19254 1955 79 EP MM NOT_NAMED 1955-10-01 06:00:00 TS 19.2322 -106.314 45 hurdat_epa main 118 118 O________OP___ hurdat_epa EP051955 19.2000 -106.300 TS 45 0 19.2000 -106.300 TC 45 19.3611 -106.370 2 7 270
1955274N19254 1955 79 EP MM NOT_NAMED 1955-10-01 09:00:00 TS 19.2832 -106.652 main 148 148 P________PP___ EP051955 19.2625 -106.645 TS 45 0 19.2625 -106.645 TC 45 19.3656 -106.680 2 6 287
1955274N19254 1955 79 EP MM NOT_NAMED 1955-10-01 12:00:00 TS 19.4000 -106.900 45 hurdat_epa main 161 161 O________OO___ hurdat_epa EP051955 19.4000 -106.900 TS 45 0 19.4000 -106.900 TC 45 19.4000 -106.900 2 4 307
1955274N19254 1955 79 EP MM NOT_NAMED 1955-10-01 15:00:00 TS 19.5287 -106.993 main 166 156 P________PP___ EP051955 19.5424 -106.988 TS 45 0 19.5424 -106.988 TC 45 19.4740 -107.013 2 3 339
1955274N19254 1955 79 EP MM NOT_NAMED 1955-10-01 18:00:00 TS 19.6789 -107.011 45 hurdat_epa main 156 151 O________OP___ hurdat_epa EP051955 19.7000 -107.000 TS 45 0 19.7000 -107.000 TC 45 19.5945 -107.053 2 3 348
1955274N19254 1955 79 EP MM NOT_NAMED 1955-10-01 21:00:00 TS 19.8156 -107.047 main 151 151 P________PP___ EP051955 19.8275 -107.043 TS 45 0 19.8275 -107.043 TC 45 19.7678 -107.066 2 3 344
1955274N19254 1955 79 EP MM NOT_NAMED 1955-10-02 00:00:00 TS 20.0000 -107.100 45 hurdat_epa main 152 147 O________OO___ hurdat_epa EP051955 20.0000 -107.100 TS 45 0 20.0000 -107.100 TC 45 20.0000 -107.100 2 5 345
1955274N19254 1955 79 EP MM NOT_NAMED 1955-10-02 03:00:00 TS 20.2652 -107.181 main 156 156 P________PP___ EP051955 20.2625 -107.178 TS 45 0 20.2625 -107.178 TC 45 20.2761 -107.193 2 6 343
1955274N19254 1955 79 EP MM NOT_NAMED 1955-10-02 06:00:00 TS 20.6019 -107.304 45 hurdat_epa main 168 168 O________OP___ hurdat_epa EP051955 20.6000 -107.300 TS 45 0 20.6000 -107.300 TC 45 20.6097 -107.318 2 8 339
1955274N19254 1955 79 EP MM NOT_NAMED 1955-10-02 09:00:00 TS 20.9797 -107.473 main 198 198 P________PP___ EP051955 20.9775 -107.470 TS 45 0 20.9775 -107.470 TC 45 20.9885 -107.484 2 9 335
1955274N19254 1955 79 EP MM NOT_NAMED 1955-10-02 12:00:00 TS 21.4000 -107.700 45 hurdat_epa main 227 219 O________OO___ hurdat_epa EP051955 21.4000 -107.700 TS 45 0 21.4000 -107.700 TC 45 21.4000 -107.700 2 10 331
1955274N19254 1955 79 EP MM NOT_NAMED 1955-10-02 15:00:00 TS 21.8390 -107.975 main 219 158 P________PP___ EP051955 21.8425 -107.978 TS 45 0 21.8425 -107.978 TC 45 21.8253 -107.962 2 11 328
1955274N19254 1955 79 EP MM NOT_NAMED 1955-10-02 18:00:00 TS 22.2955 -108.295 45 hurdat_epa main 158 107 O________OP___ hurdat_epa EP051955 22.3000 -108.300 TS 45 0 22.3000 -108.300 TC 45 22.2775 -108.275 2 11 326
1955274N19254 1955 79 EP MM NOT_NAMED 1955-10-02 21:00:00 TS 22.7541 -108.633 main 102 46 P________PP___ EP051955 22.7574 -108.635 TS 45 0 22.7574 -108.635 TC 45 22.7409 -108.625 2 11 324
1955274N19254 1955 79 EP MM NOT_NAMED 1955-10-03 00:00:00 TS 23.2000 -109.000 45 hurdat_epa main 46 10 O________OO___ hurdat_epa EP051955 23.2000 -109.000 TS 45 0 23.2000 -109.000 TC 45 23.2000 -109.000 2 11 320
1955274N19254 1955 79 EP MM NOT_NAMED 1955-10-03 03:00:00 TS 23.6090 -109.403 main 10 0 P________PP___ EP051955 23.6000 -109.393 TS 45 0 23.6000 -109.393 TC 45 23.6451 -109.442 2 11 317
1955274N19254 1955 79 EP MM NOT_NAMED 1955-10-03 06:00:00 TS 24.0162 -109.819 45 hurdat_epa main 0 0 O________OP___ hurdat_epa EP051955 24.0000 -109.800 TS 45 0 24.0000 -109.800 TC 45 24.0811 -109.896 2 12 318
1955274N19254 1955 79 EP MM NOT_NAMED 1955-10-03 09:00:00 TS 24.4664 -110.256 main 22 10 P________PP___ EP051955 24.4577 -110.245 TS 45 0 24.4577 -110.245 TC 45 24.5014 -110.301 2 11 321
1955274N19254 1955 79 EP MM NOT_NAMED 1955-10-03 12:00:00 TS 24.9000 -110.600 45 hurdat_epa main 15 15 O________OO___ hurdat_epa EP051955 24.9000 -110.600 TS 45 0 24.9000 -110.600 TC 45 24.9000 -110.600 2 9 330
1955274N19254 1955 79 EP MM NOT_NAMED 1955-10-03 15:00:00 TS 25.2665 -110.770 main 20 20 P________PP___ EP051955 25.2648 -110.775 TS 45 0 25.2648 -110.775 TC 45 25.2735 -110.748 2 7 346
1955274N19254 1955 79 EP MM NOT_NAMED 1955-10-03 18:00:00 TS 25.6054 -110.794 45 hurdat_epa main 30 30 O________OP___ hurdat_epa EP051955 25.6000 -110.800 TS 45 0 25.6000 -110.800 TC 45 25.6268 -110.770 2 7 3
1955274N19254 1955 79 EP MM NOT_NAMED 1955-10-03 21:00:00 TS 25.9494 -110.721 main 60 60 P________PP___ EP051955 25.9451 -110.725 TS 45 0 25.9451 -110.725 TC 45 25.9668 -110.706 2 7 14
1955274N19254 1955 79 EP MM NOT_NAMED 1955-10-04 00:00:00 TS 26.3000 -110.600 45 hurdat_epa main 79 O________OO___ hurdat_epa EP051955 26.3000 -110.600 TS 45 0 26.3000 -110.600 TC 45 26.3000 -110.600 2 7 18

About IBTrACS Database

This database is a web-friendly format of International Best Track Archive for Climate Stewardship (IBTrACS), a global best track data archive curated by NOAA dating back to 1842.

Updated: 2021-10-21